Time;durP1;ratioP1;P1;durP2;ratioP2;P2;SDS_P1;SDS_P2;PMS_P1;PMS_P2;Temp;Humidity;BMP_temperature;BMP_pressure;BME280_temperature;BME280_humidity;BME280_pressure;Samples;Min_cycle;Max_cycle;Signal;HPM_P1;HPM_P2
2022/06/29 00:00:29;;;;;;;21.68;18.27;;;;;;;21.93;78.58;100591.28;1756447;80;25631;-73
2022/06/29 00:02:57;;;;;;;21.62;18.40;;;;;;;21.91;78.68;100585.94;1756383;80;26173;-74
2022/06/29 00:05:26;;;;;;;20.65;17.80;;;;;;;21.89;78.60;100586.31;1756205;81;25753;-73
2022/06/29 00:07:54;;;;;;;21.12;19.12;;;;;;;21.89;78.94;100587.69;1752335;80;25604;-74
2022/06/29 00:10:21;;;;;;;22.75;18.85;;;;;;;21.86;79.00;100582.94;1756282;80;25745;-74
2022/06/29 00:12:49;;;;;;;24.52;18.85;;;;;;;21.85;79.11;100587.47;1754320;80;25641;-74
2022/06/29 00:15:17;;;;;;;21.12;19.07;;;;;;;21.83;79.46;100576.23;1739131;81;27459;-75
2022/06/29 00:17:44;;;;;;;22.87;19.35;;;;;;;21.83;79.54;100583.72;1744096;81;25812;-74
2022/06/29 00:20:16;;;;;;;21.25;19.15;;;;;;;21.83;79.82;100571.33;1741778;81;25469;-74
2022/06/29 00:22:42;;;;;;;20.55;18.50;;;;;;;21.83;79.78;100574.86;1748182;81;32491;-74
2022/06/29 00:25:11;;;;;;;21.93;19.70;;;;;;;21.83;79.89;100579.59;1745496;81;25784;-75
2022/06/29 00:27:39;;;;;;;21.62;19.50;;;;;;;21.83;79.98;100578.21;1746686;81;27509;-75
2022/06/29 00:30:08;;;;;;;20.35;18.35;;;;;;;21.82;79.96;100575.23;1746959;81;25581;-75
2022/06/29 00:32:35;;;;;;;22.58;19.90;;;;;;;21.80;80.13;100576.20;1740642;81;25675;-75
2022/06/29 00:35:02;;;;;;;20.25;18.25;;;;;;;21.78;80.21;100580.72;1765325;80;26054;-75
2022/06/29 00:37:29;;;;;;;19.57;17.67;;;;;;;21.76;80.22;100583.63;1745603;81;25314;-75
2022/06/29 00:39:55;;;;;;;20.08;18.05;;;;;;;21.76;80.31;100585.00;1747204;81;27585;-75
2022/06/29 00:42:21;;;;;;;20.05;18.00;;;;;;;21.75;80.37;100584.22;1745064;81;25778;-75
2022/06/29 00:44:47;;;;;;;19.23;17.30;;;;;;;21.75;80.39;100590.31;1731114;80;25683;-75
2022/06/29 00:47:14;;;;;;;19.00;16.95;;;;;;;21.76;80.38;100587.19;1766477;80;25680;-75
2022/06/29 00:49:41;;;;;;;19.82;17.75;;;;;;;21.75;80.30;100595.82;1738955;81;25453;-75
2022/06/29 00:52:12;;;;;;;18.35;16.65;;;;;;;21.71;80.12;100587.53;1745379;80;28152;-75
2022/06/29 00:54:47;;;;;;;18.32;16.50;;;;;;;21.70;80.17;100588.69;1744599;81;25701;-75
2022/06/29 00:57:18;;;;;;;21.50;17.17;;;;;;;21.69;80.19;100580.80;1739878;81;25773;-75
2022/06/29 00:59:47;;;;;;;18.80;16.90;;;;;;;21.68;80.20;100572.36;1767012;80;25518;-75
2022/06/29 01:02:17;;;;;;;18.35;16.55;;;;;;;21.66;80.34;100569.98;1737929;81;25629;-74
2022/06/29 01:04:45;;;;;;;19.25;17.35;;;;;;;21.64;80.26;100566.82;1764173;80;27407;-75
2022/06/29 01:07:15;;;;;;;17.80;15.90;;;;;;;21.62;80.35;100562.25;1766503;80;25829;-74
2022/06/29 01:09:43;;;;;;;16.20;14.43;;;;;;;21.59;80.30;100556.94;1767104;80;25931;-74
2022/06/29 01:12:10;;;;;;;18.60;15.48;;;;;;;21.55;80.21;100545.09;1766088;80;26256;-75
2022/06/29 01:14:37;;;;;;;16.75;14.98;;;;;;;21.55;80.13;100534.67;1768048;80;25380;-74
2022/06/29 01:17:04;;;;;;;17.52;15.85;;;;;;;21.53;80.16;100526.01;1765660;80;28052;-74
2022/06/29 01:19:30;;;;;;;21.93;16.77;;;;;;;21.52;80.26;100534.05;1765549;80;25586;-74
2022/06/29 01:22:04;;;;;;;18.35;16.35;;;;;;;21.49;80.30;100532.04;1764008;80;25536;-75
2022/06/29 01:24:30;;;;;;;18.35;16.45;;;;;;;21.47;80.39;100528.88;1764594;80;25622;-74
2022/06/29 01:26:56;;;;;;;18.05;16.23;;;;;;;21.46;80.56;100518.44;1766944;80;25735;-74
2022/06/29 01:29:22;;;;;;;19.85;17.80;;;;;;;21.45;80.49;100527.28;1767510;80;27485;-74
2022/06/29 01:31:54;;;;;;;18.87;16.55;;;;;;;21.43;80.58;100518.59;1767508;80;25376;-74
2022/06/29 01:34:20;;;;;;;17.67;15.88;;;;;;;21.42;80.62;100514.28;1764591;80;25629;-74
2022/06/29 01:36:46;;;;;;;21.90;16.67;;;;;;;21.40;80.66;100515.25;1765402;80;25577;-74
2022/06/29 01:39:12;;;;;;;20.00;17.48;;;;;;;21.37;80.56;100511.87;1768021;80;25648;-74
2022/06/29 01:41:38;;;;;;;18.67;16.65;;;;;;;21.35;80.55;100514.21;1766424;80;27734;-74
2022/06/29 01:44:04;;;;;;;17.82;16.15;;;;;;;21.32;80.57;100505.89;1764760;80;25777;-74
2022/06/29 01:46:30;;;;;;;17.70;15.80;;;;;;;21.30;80.27;100499.98;1766062;80;25366;-74
2022/06/29 01:48:57;;;;;;;19.30;16.97;;;;;;;;;;1765711;80;25541;-75
2022/06/29 01:51:23;;;;;;;18.20;16.27;;;;;;;21.21;80.39;100490.66;1767054;80;25453;-75
2022/06/29 01:53:49;;;;;;;18.98;17.00;;;;;;;21.13;80.57;100482.93;1764971;80;27963;-75
2022/06/29 01:56:15;;;;;;;17.15;15.55;;;;;;;21.13;80.55;100490.37;1754153;80;25661;-75
2022/06/29 01:58:42;;;;;;;18.20;15.43;;;;;;;21.10;80.51;100487.02;1765968;80;25451;-75
2022/06/29 02:01:08;;;;;;;17.80;16.05;;;;;;;21.06;80.78;100483.64;1764938;80;25714;-75
2022/06/29 02:03:35;;;;;;;17.82;15.93;;;;;;;21.02;80.58;100477.89;1763726;80;25544;-75
2022/06/29 02:06:02;;;;;;;16.67;15.00;;;;;;;20.98;80.62;100475.69;1765766;80;27447;-75
2022/06/29 02:08:28;;;;;;;17.40;14.25;;;;;;;20.94;80.48;100480.34;1765843;80;25680;-76
2022/06/29 02:10:55;;;;;;;18.45;14.68;;;;;;;20.90;80.29;100475.59;1767355;80;25724;-76
2022/06/29 02:13:21;;;;;;;16.87;15.05;;;;;;;20.86;80.39;100466.52;1767515;80;25996;-76
2022/06/29 02:15:47;;;;;;;15.35;13.72;;;;;;;20.83;80.53;100471.38;1765242;80;25760;-76
2022/06/29 02:18:13;;;;;;;17.42;13.83;;;;;;;20.79;80.43;100467.00;1761124;80;27536;-76
2022/06/29 02:20:40;;;;;;;15.78;14.18;;;;;;;20.76;80.58;100471.89;1764071;80;25573;-76
2022/06/29 02:23:06;;;;;;;15.93;14.23;;;;;;;20.71;80.58;100474.38;1765512;80;25756;-75
2022/06/29 02:25:32;;;;;;;16.17;14.58;;;;;;;20.66;80.61;100477.46;1767622;80;25569;-76
2022/06/29 02:27:58;;;;;;;15.95;13.88;;;;;;;20.61;80.62;100482.66;1766573;80;25576;-75
2022/06/29 02:34:43;;;;;;;16.32;14.47;;;;;;;20.56;80.87;100475.34;1768809;80;28170;-75
2022/06/29 02:35:37;;;;;;;16.48;14.15;;;;;;;20.52;81.32;100479.41;1764400;80;25719;-75
2022/06/29 02:38:03;;;;;;;16.05;14.38;;;;;;;20.50;81.37;100479.00;1763632;80;26312;-75
2022/06/29 02:40:29;;;;;;;19.67;14.90;;;;;;;20.47;81.36;100477.77;1767038;80;25408;-75
2022/06/29 02:42:55;;;;;;;16.67;15.08;;;;;;;20.45;81.48;100475.17;1765395;80;27412;-75
2022/06/29 02:45:21;;;;;;;16.77;14.75;;;;;;;20.42;81.53;100483.59;1765663;80;25843;-75
2022/06/29 02:47:47;;;;;;;19.60;16.15;;;;;;;20.41;81.65;100494.36;1764651;80;25631;-75
2022/06/29 02:50:13;;;;;;;20.88;15.80;;;;;;;20.38;81.68;100493.75;1761073;80;25834;-75
2022/06/29 02:52:39;;;;;;;17.50;15.65;;;;;;;20.36;81.97;100491.93;1766759;80;25689;-75
2022/06/29 02:55:06;;;;;;;21.05;16.20;;;;;;;20.36;82.07;100487.81;1766941;80;27544;-75
2022/06/29 02:57:32;;;;;;;17.70;15.32;;;;;;;20.34;82.08;100490.92;1769507;80;25393;-75
2022/06/29 02:59:58;;;;;;;19.92;15.88;;;;;;;20.36;82.14;100488.40;1763341;80;25618;-75
2022/06/29 03:02:24;;;;;;;17.35;15.38;;;;;;;20.36;82.28;100486.44;1765712;80;26203;-75
2022/06/29 03:04:50;;;;;;;17.92;15.80;;;;;;;20.37;82.43;100483.91;1764748;80;25414;-75
2022/06/29 03:07:16;;;;;;;18.30;16.48;;;;;;;20.39;82.61;100482.17;1766358;80;27515;-74
2022/06/29 03:09:42;;;;;;;18.25;16.45;;;;;;;20.39;82.57;100486.29;1766713;80;25440;-74
2022/06/29 03:12:09;;;;;;;19.25;17.25;;;;;;;20.41;82.82;100484.73;1766707;80;25719;-74
2022/06/29 03:14:35;;;;;;;19.02;16.97;;;;;;;20.43;82.81;100487.94;1767542;80;25645;-74
2022/06/29 03:17:01;;;;;;;20.43;17.45;;;;;;;20.44;83.00;100476.36;1767658;80;25568;-74
2022/06/29 03:19:27;;;;;;;22.98;17.82;;;;;;;20.46;83.15;100478.14;1767649;80;28529;-75
2022/06/29 03:21:53;;;;;;;22.52;17.52;;;;;;;20.48;83.27;100477.18;1764587;80;25744;-74
2022/06/29 03:24:19;;;;;;;19.92;17.85;;;;;;;20.49;83.20;100476.81;1766596;80;25651;-74
2022/06/29 03:26:45;;;;;;;21.07;18.30;;;;;;;20.53;83.41;100488.66;1766451;80;25704;-74
2022/06/29 03:29:11;;;;;;;22.30;18.87;;;;;;;20.56;83.34;100485.73;1767186;80;25716;-74
2022/06/29 03:31:38;;;;;;;20.23;17.65;;;;;;;20.58;83.32;100482.62;1767645;80;28068;-74
2022/06/29 03:34:04;;;;;;;25.70;19.62;;;;;;;20.60;83.29;100483.03;1765402;80;25385;-75
2022/06/29 03:36:30;;;;;;;23.18;19.42;;;;;;;20.62;83.26;100487.56;1765548;80;25488;-74
2022/06/29 03:38:56;;;;;;;25.12;20.05;;;;;;;20.63;83.04;100489.19;1766086;80;25551;-74
2022/06/29 03:41:22;;;;;;;22.70;20.23;;;;;;;20.63;83.08;100480.36;1767602;80;25409;-75
2022/06/29 03:43:49;;;;;;;25.75;21.07;;;;;;;20.63;83.03;100483.10;1767212;80;27455;-74
2022/06/29 03:46:15;;;;;;;26.10;20.62;;;;;;;20.64;82.99;100486.08;1763139;80;25661;-75
2022/06/29 03:48:41;;;;;;;23.10;20.27;;;;;;;20.64;82.91;100484.70;1763888;80;25662;-74
2022/06/29 03:51:07;;;;;;;25.10;20.45;;;;;;;20.64;83.07;100477.83;1766117;80;25571;-74
2022/06/29 03:53:33;;;;;;;25.17;21.62;;;;;;;20.66;83.01;100475.49;1741838;81;25790;-74
2022/06/29 03:55:59;;;;;;;23.20;19.87;;;;;;;20.68;82.93;100473.75;1765999;80;28418;-75
2022/06/29 03:58:25;;;;;;;22.40;20.05;;;;;;;20.69;83.01;100478.88;1766091;80;25625;-74
2022/06/29 04:00:51;;;;;;;23.98;19.35;;;;;;;20.71;83.16;100475.16;1762374;80;25577;-75
2022/06/29 04:03:17;;;;;;;22.37;19.92;;;;;;;20.76;83.20;100478.17;1764110;80;26058;-75
2022/06/29 04:05:43;;;;;;;23.65;20.05;;;;;;;20.80;83.03;100483.71;1765331;80;25669;-75
2022/06/29 04:08:10;;;;;;;22.85;20.17;;;;;;;20.82;82.91;100484.13;1764726;80;28164;-75
2022/06/29 04:10:37;;;;;;;26.50;21.15;;;;;;;20.83;82.82;100481.59;1766431;80;25647;-75
2022/06/29 04:13:03;;;;;;;25.05;20.05;;;;;;;20.86;82.76;100484.98;1773431;80;25528;-75
2022/06/29 04:15:29;;;;;;;27.85;21.42;;;;;;;20.87;82.64;100478.30;1772518;80;25679;-74
2022/06/29 04:17:55;;;;;;;22.67;19.40;;;;;;;20.88;82.55;100475.17;1770557;80;25661;-75
2022/06/29 04:23:06;;;;;;;27.77;21.17;;;;;;;20.96;82.78;100475.25;1764746;80;25701;-75
2022/06/29 04:25:32;;;;;;;29.23;22.82;;;;;;;21.00;82.60;100470.60;1764052;80;25335;-75
2022/06/29 04:27:58;;;;;;;25.57;21.55;;;;;;;21.01;82.46;100460.61;1765449;80;26222;-74
2022/06/29 04:30:24;;;;;;;24.10;20.25;;;;;;;21.03;82.41;100458.27;1765602;80;25440;-74
2022/06/29 04:32:50;;;;;;;28.32;20.68;;;;;;;21.06;82.40;100460.27;1740702;80;28138;-74
2022/06/29 04:35:17;;;;;;;24.02;20.27;;;;;;;21.07;82.30;100454.96;1742514;81;25864;-74
2022/06/29 04:37:43;;;;;;;26.90;21.40;;;;;;;21.11;82.24;100461.87;1773537;80;25655;-75
2022/06/29 04:40:11;;;;;;;28.25;20.77;;;;;;;21.12;82.15;100455.21;1768454;80;26225;-75
2022/06/29 04:42:37;;;;;;;27.35;22.10;;;;;;;21.15;82.27;100457.21;1770671;80;25723;-74
2022/06/29 04:45:04;;;;;;;32.15;23.47;;;;;;;21.19;82.31;100464.91;1738737;81;28033;-74
2022/06/29 04:47:31;;;;;;;25.62;22.00;;;;;;;21.23;81.96;100468.50;1767870;80;25667;-74
2022/06/29 04:49:57;;;;;;;25.27;21.90;;;;;;;21.20;81.72;100462.97;1769100;80;25448;-75
2022/06/29 04:52:26;;;;;;;27.48;22.77;;;;;;;21.20;81.75;100465.13;1768654;80;25792;-75
2022/06/29 04:54:52;;;;;;;25.95;21.93;;;;;;;21.23;81.60;100467.69;1741984;82;25601;-74
2022/06/29 04:57:19;;;;;;;28.00;20.95;;;;;;;21.23;81.58;100464.94;1769642;80;27454;-74
2022/06/29 04:59:45;;;;;;;25.90;21.85;;;;;;;21.22;81.50;100468.28;1737314;81;25706;-75
2022/06/29 05:02:11;;;;;;;24.10;20.30;;;;;;;21.24;81.71;100475.56;1767721;80;25533;-75
2022/06/29 05:04:37;;;;;;;24.65;20.75;;;;;;;21.26;81.56;100471.84;1766821;80;26194;-75
2022/06/29 05:07:04;;;;;;;26.62;20.95;;;;;;;;;;1741120;81;25756;-74
2022/06/29 05:09:30;;;;;;;26.90;20.88;;;;;;;21.29;81.54;100473.07;1737773;81;27687;-74
2022/06/29 05:11:56;;;;;;;23.02;19.52;;;;;;;21.29;81.38;100468.94;1748814;81;25711;-74
2022/06/29 05:14:22;;;;;;;27.73;20.48;;;;;;;21.30;81.33;100469.72;1769576;80;25708;-74
2022/06/29 05:16:48;;;;;;;27.52;21.77;;;;;;;21.30;81.29;100467.78;1766873;80;25658;-76
2022/06/29 05:19:16;;;;;;;28.10;21.73;;;;;;;21.31;81.25;100467.97;1733949;82;25643;-75
2022/06/29 05:21:42;;;;;;;27.90;21.12;;;;;;;21.33;81.37;100471.13;1745007;81;27512;-75
2022/06/29 05:24:10;;;;;;;26.02;21.12;;;;;;;21.36;81.46;100470.98;1745666;81;25541;-75
2022/06/29 05:26:37;;;;;;;29.42;21.75;;;;;;;21.41;81.57;100480.27;1763029;80;25653;-75
2022/06/29 05:29:03;;;;;;;30.82;22.77;;;;;;;21.42;81.51;100484.02;1753629;80;26032;-75
2022/06/29 05:31:31;;;;;;;30.60;24.63;;;;;;;21.46;81.41;100488.17;1766442;80;25555;-75
2022/06/29 05:33:57;;;;;;;32.03;23.05;;;;;;;21.49;81.20;100486.64;1738471;81;27353;-75
2022/06/29 05:36:23;;;;;;;30.32;23.87;;;;;;;21.50;81.19;100489.61;1742943;81;25949;-75
2022/06/29 05:38:49;;;;;;;28.38;22.05;;;;;;;21.50;81.06;100490.39;1743735;81;25794;-75
2022/06/29 05:41:15;;;;;;;28.80;23.98;;;;;;;21.52;81.16;100496.89;1747829;81;25677;-75
2022/06/29 05:43:43;;;;;;;28.38;22.00;;;;;;;21.52;80.76;100496.33;1744819;81;25592;-75
2022/06/29 05:46:09;;;;;;;28.57;21.60;;;;;;;21.53;80.81;100494.36;1722723;81;28257;-75
2022/06/29 05:48:35;;;;;;;26.50;22.65;;;;;;;21.54;80.89;100493.98;1719212;82;25588;-75
2022/06/29 05:51:01;;;;;;;27.40;21.37;;;;;;;21.58;80.83;100492.64;1719608;82;25770;-76
2022/06/29 05:53:27;;;;;;;32.25;21.33;;;;;;;21.60;80.80;100493.83;1719710;82;25517;-75
2022/06/29 05:55:53;;;;;;;27.10;21.75;;;;;;;21.62;80.78;100489.32;1705898;82;25408;-76
2022/06/29 05:58:20;;;;;;;27.35;22.42;;;;;;;21.65;80.76;100483.06;1717971;82;27450;-73
2022/06/29 06:00:48;;;;;;;26.30;22.42;;;;;;;21.70;80.70;100484.09;1718324;82;25745;-75
2022/06/29 06:03:15;;;;;;;32.65;22.95;;;;;;;21.73;80.47;100488.06;1712199;82;25600;-75
2022/06/29 06:05:41;;;;;;;31.75;22.37;;;;;;;21.75;80.20;100487.87;1719294;82;25559;-75
2022/06/29 06:08:07;;;;;;;25.82;22.02;;;;;;;21.74;80.17;100483.55;1718912;82;25446;-75
2022/06/29 06:10:33;;;;;;;27.67;21.68;;;;;;;21.75;80.08;100487.87;1714153;82;27511;-76
2022/06/29 06:12:59;;;;;;;30.80;22.10;;;;;;;21.76;80.07;100496.34;1720517;82;25922;-74
2022/06/29 06:15:26;;;;;;;32.45;23.42;;;;;;;21.76;79.92;100491.40;1720988;82;25441;-75
2022/06/29 06:17:52;;;;;;;28.17;20.52;;;;;;;21.73;79.62;100490.22;1718037;82;25461;-74
2022/06/29 06:20:18;;;;;;;26.07;20.32;;;;;;;21.73;79.62;100488.84;1717543;82;25394;-74
2022/06/29 06:22:44;;;;;;;25.48;20.80;;;;;;;21.76;79.68;100492.22;1719500;82;27719;-75
2022/06/29 06:25:10;;;;;;;23.52;21.05;;;;;;;21.78;79.75;100498.72;1718588;82;25703;-75
2022/06/29 06:27:36;;;;;;;27.95;21.37;;;;;;;21.79;79.68;100494.77;1718414;82;25626;-74
2022/06/29 06:30:03;;;;;;;28.52;20.97;;;;;;;21.83;79.48;100497.77;1720682;82;25547;-72
2022/06/29 06:32:30;;;;;;;23.05;19.48;;;;;;;21.82;79.29;100494.80;1716243;82;25721;-72
2022/06/29 06:34:56;;;;;;;21.62;18.87;;;;;;;21.85;79.33;100501.52;1720105;82;27964;-73
2022/06/29 06:37:22;;;;;;;25.15;21.12;;;;;;;21.87;79.42;100499.77;1712331;82;25403;-70
2022/06/29 06:42:32;;;;;;;25.10;19.55;;;;;;;21.96;79.20;100508.48;1705904;82;25639;-70
2022/06/29 06:44:58;;;;;;;22.60;18.02;;;;;;;21.99;79.22;100504.97;1723657;81;25708;-71
2022/06/29 06:47:25;;;;;;;23.50;18.87;;;;;;;22.04;79.42;100510.72;1738980;81;28189;-72
2022/06/29 06:49:51;;;;;;;28.07;18.10;;;;;;;22.08;78.95;100515.06;1741047;81;25811;-72
2022/06/29 06:52:17;;;;;;;20.43;18.12;;;;;;;22.11;78.70;100505.27;1766357;80;25711;-72
2022/06/29 06:54:46;;;;;;;23.73;18.48;;;;;;;22.14;78.32;100508.63;1769632;80;25716;-72
2022/06/29 06:57:13;;;;;;;26.42;19.50;;;;;;;22.17;78.23;100506.50;1769701;80;25626;-72
2022/06/29 06:59:38;;;;;;;24.82;19.50;;;;;;;22.20;78.22;100507.89;1738238;81;27458;-69
2022/06/29 07:02:04;;;;;;;23.18;19.52;;;;;;;22.24;78.21;100502.41;1768565;80;25819;-70
2022/06/29 07:04:30;;;;;;;23.38;20.85;;;;;;;22.27;77.90;100511.85;1761292;80;25696;-70
2022/06/29 07:06:56;;;;;;;31.55;22.02;;;;;;;22.27;77.75;100511.85;1767829;80;25776;-70
2022/06/29 07:09:22;;;;;;;28.98;20.48;;;;;;;22.28;77.63;100507.37;1767438;80;25782;-70
2022/06/29 07:11:48;;;;;;;26.75;20.48;;;;;;;22.26;77.45;100502.80;1762562;80;27616;-69
2022/06/29 07:14:14;;;;;;;25.72;20.57;;;;;;;22.27;77.50;100514.05;1760195;80;25365;-70
2022/06/29 07:16:40;;;;;;;22.07;18.40;;;;;;;22.31;77.82;100514.09;1769297;80;25662;-69
2022/06/29 07:19:07;;;;;;;20.48;17.50;;;;;;;22.34;77.84;100521.00;1735618;81;25677;-70
2022/06/29 07:21:33;;;;;;;23.30;19.80;;;;;;;22.40;77.91;100520.04;1723269;81;25713;-69
2022/06/29 07:23:59;;;;;;;23.67;19.40;;;;;;;22.45;77.39;100517.52;1748401;80;28280;-70
2022/06/29 07:26:26;;;;;;;25.43;19.62;;;;;;;22.47;77.34;100515.16;1735104;81;25693;-70
2022/06/29 07:28:53;;;;;;;21.02;18.67;;;;;;;22.51;77.12;100507.72;1767246;80;25689;-71
2022/06/29 07:31:19;;;;;;;22.95;18.12;;;;;;;22.54;76.91;100509.69;1765840;80;25713;-69
2022/06/29 07:33:45;;;;;;;23.47;19.98;;;;;;;22.54;76.86;100511.06;1740957;81;25711;-71
2022/06/29 07:36:15;;;;;;;21.27;18.35;;;;;;;22.61;76.78;100519.96;1767628;80;28105;-71
2022/06/29 07:38:41;;;;;;;20.70;16.73;;;;;;;22.66;76.53;100516.84;1739070;81;25812;-71
2022/06/29 07:41:07;;;;;;;19.90;17.23;;;;;;;22.74;76.69;100508.21;1771441;80;25607;-71
2022/06/29 07:43:33;;;;;;;18.98;16.65;;;;;;;22.81;76.46;100512.97;1766644;80;26208;-72
2022/06/29 07:45:59;;;;;;;18.67;16.75;;;;;;;22.85;76.00;100514.36;1768652;80;25771;-71
2022/06/29 07:48:26;;;;;;;18.37;15.65;;;;;;;22.98;76.16;100509.30;1770574;80;27991;-71
2022/06/29 07:50:53;;;;;;;18.37;16.50;;;;;;;23.06;75.80;100502.67;1773854;80;25676;-73
2022/06/29 07:53:20;;;;;;;16.75;14.75;;;;;;;23.17;75.57;100508.20;1769980;80;25658;-71
2022/06/29 07:55:47;;;;;;;15.85;14.35;;;;;;;23.25;75.23;100518.87;1750564;80;26265;-72
2022/06/29 07:58:15;;;;;;;16.00;14.40;;;;;;;23.35;74.79;100509.64;1746108;80;25660;-72
2022/06/29 08:00:42;;;;;;;16.10;14.33;;;;;;;23.38;73.89;100515.73;1776310;80;27349;-69
2022/06/29 08:03:09;;;;;;;18.30;14.80;;;;;;;23.37;73.70;100507.28;1789087;80;25609;-70
2022/06/29 08:05:36;;;;;;;14.90;13.45;;;;;;;23.38;73.62;100509.65;1756387;79;25576;-72
2022/06/29 08:08:02;;;;;;;15.83;13.75;;;;;;;23.41;73.34;100509.44;1771617;80;26284;-72
2022/06/29 08:10:29;;;;;;;15.90;14.23;;;;;;;23.44;73.46;100508.06;1780684;80;25623;-71
2022/06/29 08:12:58;;;;;;;15.95;14.38;;;;;;;23.49;73.29;100500.78;1746180;80;27462;-72
2022/06/29 08:15:25;;;;;;;;;;;;;;;23.53;72.97;100508.28;1755321;80;25697;-72
2022/06/29 08:17:53;;;;;;;16.12;14.40;;;;;;;23.52;72.48;100506.13;1764817;80;25714;-71
2022/06/29 08:20:21;;;;;;;17.52;14.03;;;;;;;23.51;72.57;100505.91;1770870;80;25595;-71
2022/06/29 08:22:48;;;;;;;17.00;15.15;;;;;;;23.56;72.71;100503.36;1766209;79;25534;-71
2022/06/29 08:25:14;;;;;;;16.10;14.18;;;;;;;23.57;72.49;100502.97;1774550;80;27292;-71
2022/06/29 08:27:41;;;;;;;15.30;13.05;;;;;;;23.63;72.36;100511.64;1769813;80;25812;-71
2022/06/29 08:30:10;;;;;;;15.28;13.72;;;;;;;23.66;72.25;100506.72;1770027;80;25664;-71
2022/06/29 08:32:39;;;;;;;18.73;15.28;;;;;;;23.76;72.67;100505.16;1769766;80;25736;-71
2022/06/29 08:35:05;;;;;;;15.18;13.68;;;;;;;23.86;72.25;100496.89;1769755;80;25598;-73
2022/06/29 08:37:31;;;;;;;14.03;12.63;;;;;;;23.98;72.26;100503.21;1761873;81;27529;-71
2022/06/29 08:39:57;;;;;;;14.50;13.10;;;;;;;24.09;72.05;100497.66;1738378;81;25547;-72
2022/06/29 08:42:24;;;;;;;14.55;12.93;;;;;;;24.22;71.60;100503.77;1761840;80;25639;-73
2022/06/29 08:44:51;;;;;;;15.28;13.32;;;;;;;24.29;70.59;100502.96;1761553;80;25677;-70
2022/06/29 08:47:19;;;;;;;16.93;14.15;;;;;;;24.35;70.64;100497.84;1759520;80;25444;-71
2022/06/29 08:49:45;;;;;;;13.58;12.20;;;;;;;24.56;71.16;100492.27;1759234;81;28118;-71
2022/06/29 08:52:12;;;;;;;13.05;11.85;;;;;;;24.92;71.19;100490.73;1759297;80;25680;-71
2022/06/29 08:54:42;;;;;;;13.60;12.25;;;;;;;25.21;70.38;100489.80;1770763;80;25795;-70
2022/06/29 08:57:09;;;;;;;14.45;13.03;;;;;;;25.38;69.44;100487.55;1734231;81;25921;-72
2022/06/29 08:59:36;;;;;;;15.03;12.20;;;;;;;25.50;68.74;100484.89;1759055;80;25761;-72
2022/06/29 09:02:03;;;;;;;14.58;13.03;;;;;;;25.62;68.01;100489.94;1756529;80;28108;-71
2022/06/29 09:04:30;;;;;;;15.28;13.03;;;;;;;25.70;67.61;100492.84;1786406;80;25672;-71
2022/06/29 09:06:57;;;;;;;13.48;12.07;;;;;;;25.83;67.43;100486.80;1786418;80;26275;-70
2022/06/29 09:09:24;;;;;;;13.75;12.30;;;;;;;25.98;67.10;100484.72;1770009;79;26158;-72
2022/06/29 09:11:54;;;;;;;18.27;12.20;;;;;;;26.15;66.45;100479.60;1783871;80;25427;-72
2022/06/29 09:14:24;;;;;;;14.43;12.37;;;;;;;26.29;66.18;100488.39;1784264;80;27311;-71
2022/06/29 09:16:58;;;;;;;13.93;12.43;;;;;;;26.46;65.86;100492.95;1776663;79;25714;-71
2022/06/29 09:19:30;;;;;;;16.90;12.80;;;;;;;26.52;65.05;100494.66;1762845;80;25751;-71
2022/06/29 09:21:58;;;;;;;13.62;12.23;;;;;;;26.59;64.45;100496.56;1762664;79;25732;-73
2022/06/29 09:24:29;;;;;;;14.53;13.03;;;;;;;26.62;64.08;100494.36;1775862;80;25553;-72
2022/06/29 09:27:02;;;;;;;15.32;13.68;;;;;;;26.68;63.78;100489.16;1761650;80;27306;-71
2022/06/29 09:29:32;;;;;;;15.88;13.93;;;;;;;26.69;63.09;100492.91;1785310;78;25567;-72
2022/06/29 09:32:07;;;;;;;14.38;12.95;;;;;;;26.70;62.88;100493.11;1781043;80;25586;-72
2022/06/29 09:34:38;;;;;;;18.90;14.03;;;;;;;26.75;62.54;100500.97;1765240;80;25734;-70
2022/06/29 09:37:09;;;;;;;13.38;12.18;;;;;;;26.84;63.01;100494.91;1769034;80;25720;-72
2022/06/29 09:39:51;;;;;;;13.53;12.23;;;;;;;26.98;62.52;100493.33;1758972;80;26717;-71
2022/06/29 09:42:26;;;;;;;13.53;12.05;;;;;;;27.16;62.29;100493.70;1759047;80;25760;-72
2022/06/29 09:44:53;;;;;;;14.40;12.90;;;;;;;27.36;61.72;100496.59;1761099;80;25767;-74
2022/06/29 09:47:22;;;;;;;15.83;12.93;;;;;;;27.69;61.32;100487.95;1761784;80;25830;-73
2022/06/29 09:50:02;;;;;;;12.40;11.20;;;;;;;28.08;60.93;100493.47;1743148;81;25519;-69
2022/06/29 09:52:31;;;;;;;13.62;11.28;;;;;;;28.25;59.86;100494.97;1757033;80;27310;-69
2022/06/29 09:55:00;;;;;;;12.40;10.65;;;;;;;28.34;59.01;100492.39;1754033;80;25613;-68
2022/06/29 09:57:31;;;;;;;13.03;11.68;;;;;;;28.29;58.81;100492.27;1739940;81;26320;-70
2022/06/29 10:02:55;;;;;;;14.25;10.82;;;;;;;28.61;58.97;100483.17;1734549;81;25676;-69
2022/06/29 10:05:27;;;;;;;11.53;10.40;;;;;;;28.87;58.57;100482.81;1754609;80;27310;-71
2022/06/29 10:07:54;;;;;;;11.18;10.28;;;;;;;29.13;58.18;100487.98;1754069;80;26243;-68
2022/06/29 10:10:26;;;;;;;91.42;18.80;;;;;;;29.45;57.53;100484.33;1740716;81;25615;-68
2022/06/29 10:16:15;;;;;;;13.75;10.78;;;;;;;29.69;55.71;100497.48;1724448;81;25830;-68
2022/06/29 10:19:19;;;;;;;10.63;9.73;;;;;;;29.72;54.99;100504.34;1757796;80;28540;-69
2022/06/29 10:21:46;;;;;;;11.83;10.72;;;;;;;29.77;55.22;100494.09;1698374;83;25806;-67
2022/06/29 10:24:19;;;;;;;12.33;11.12;;;;;;;29.87;54.22;100496.45;1724800;82;25669;-67
2022/06/29 10:26:46;;;;;;;11.50;9.75;;;;;;;29.76;53.98;100492.55;1695884;83;25967;-66
2022/06/29 10:29:24;;;;;;;11.30;10.20;;;;;;;29.74;53.76;100499.12;1718730;82;25437;-66
2022/06/29 10:31:59;;;;;;;10.50;9.60;;;;;;;29.76;53.92;100504.26;1696276;83;28071;-66
2022/06/29 10:34:34;;;;;;;12.00;10.90;;;;;;;29.85;53.60;100501.69;1703590;83;27262;-65
2022/06/29 10:37:15;;;;;;;10.58;9.65;;;;;;;29.85;53.18;100502.27;1696339;83;25665;-66
2022/06/29 10:39:52;;;;;;;10.60;9.20;;;;;;;29.82;53.07;100498.99;1694631;83;26279;-66
2022/06/29 10:45:16;;;;;;;10.30;9.35;;;;;;;29.79;52.86;100500.02;1671338;83;27202;-65
2022/06/29 10:47:57;;;;;;;11.10;10.05;;;;;;;29.99;53.41;100497.13;1671270;84;25792;-68
2022/06/29 10:50:31;;;;;;;10.05;8.70;;;;;;;30.27;52.79;100499.59;1660129;84;25765;-64
2022/06/29 10:53:04;;;;;;;10.25;9.28;;;;;;;30.58;52.21;100494.98;1670985;84;25397;-65
2022/06/29 10:55:33;;;;;;;9.00;8.05;;;;;;;30.65;51.52;100492.77;1691374;81;25790;-66
2022/06/29 10:58:02;;;;;;;9.13;8.30;;;;;;;30.74;51.40;100485.14;1726124;81;27397;-66
2022/06/29 11:00:38;;;;;;;9.73;8.85;;;;;;;30.89;51.33;100484.11;1715587;81;25757;-67
2022/06/29 11:03:18;;;;;;;10.13;9.18;;;;;;;31.08;51.11;100482.36;1727860;81;25762;-64
2022/06/29 11:16:57;;;;;;;12.88;8.00;;;;;;;33.00;47.27;100464.75;1739092;80;25647;-69
2022/06/29 11:19:34;;;;;;;9.03;8.10;;;;;;;33.15;46.95;100474.81;1722077;81;26389;-66
2022/06/29 11:22:15;;;;;;;10.55;8.30;;;;;;;33.45;46.72;100478.17;1751559;80;25493;-66
2022/06/29 11:25:00;;;;;;;9.98;9.08;;;;;;;33.64;45.62;100475.41;1727496;81;28254;-66
2022/06/29 11:27:38;;;;;;;10.10;9.10;;;;;;;33.96;44.81;100487.32;1753981;80;25809;-66
2022/06/29 11:30:08;;;;;;;8.93;8.10;;;;;;;34.04;44.81;100467.53;1756136;80;25649;-65
2022/06/29 11:32:45;;;;;;;8.43;7.62;;;;;;;34.39;44.36;100464.39;1754141;80;25670;-67
2022/06/29 11:35:13;;;;;;;10.23;8.60;;;;;;;34.59;43.65;100459.05;1752495;80;25629;-67
2022/06/29 11:37:52;;;;;;;10.85;9.05;;;;;;;34.85;42.91;100457.91;1731126;81;27328;-67
2022/06/29 11:40:41;;;;;;;8.48;7.87;;;;;;;34.95;42.49;100454.58;1756355;80;25621;-69
2022/06/29 11:43:14;;;;;;;9.28;8.10;;;;;;;34.96;42.28;100446.95;1756481;80;25669;-69